アラート の空港の天気 - METARとTAF

Alert Airport ( CYLT / YLT ) - カナダ ヌナブト準州アラート
飛行場実況気象(Metar)
観測時間07/20 15:00 EDT (07/20 19:00 UTC)
風向・風速北 2m/s
視程10km以上
天気現象
全天の4割程度の雲 雲底高度 1520m
全天の4割程度の雲 雲底高度 3960m
気温2℃
湿度93%
気圧997.1hPa
METARCYLT 201900Z 35004KT 15SM SCT050 SCT130 02/01 A2944 RMK SC3AC1 LAST OBS/NEXT 230800 UTC SLP971
過去の天気等 Google飛行場航空写真 Wunderground天気予報

過去48時間のMETAR

飛行場予報(TAF)
データがありません